EGTR weather

Elstree Airfield
Watford, England, United Kingdom

Public forecast

Using degrees Celsius for public forecast. Weather courtesy of forecast.io.

Closest aviation weather report (METAR) to Elstree Airfield

Closest report is RAF Northolt, 7.1 nm (13.1 km) SSW. Retrieved 2019/10/19 13:50 UTC (18 minutes ago):

EGWU 191350Z 24010KT 9999 SCT040 14/08 Q1000 NOSIG

Closest aviation forecast (TAF) to Elstree Airfield

Closest forecast is RAF Northolt, 7.1 nm (13.1 km) SSW. Retrieved 2019/10/19 15:00 UTC (0 seconds ago):

TAF EGWU 191340Z 1915/2009 23010KT 9999 SCT030 PROB30 TEMPO 1915/1917 7000 SHRA SCT024 PROB40 1922/2006 7000 HZ PROB30 2004/2008 2000 BR BKN004